sensor_id;sensor_type;location;lat;lon;timestamp;P1;durP1;ratioP1;P2;durP2;ratioP2
64498;SDS011;51087;55.718;21.122;2023-04-07T00:00:20;33.20;;;14.07;;
64498;SDS011;51087;55.718;21.122;2023-04-07T00:02:45;40.72;;;15.73;;
64498;SDS011;51087;55.718;21.122;2023-04-07T00:05:11;31.88;;;14.25;;
64498;SDS011;51087;55.718;21.122;2023-04-07T00:07:36;31.92;;;13.90;;
64498;SDS011;51087;55.718;21.122;2023-04-07T00:10:02;35.53;;;15.40;;
64498;SDS011;51087;55.718;21.122;2023-04-07T00:12:27;30.83;;;13.65;;
64498;SDS011;51087;55.718;21.122;2023-04-07T00:14:53;35.72;;;14.68;;
64498;SDS011;51087;55.718;21.122;2023-04-07T00:17:18;32.15;;;14.52;;
64498;SDS011;51087;55.718;21.122;2023-04-07T00:19:44;35.90;;;14.90;;
64498;SDS011;51087;55.718;21.122;2023-04-07T00:22:09;39.55;;;16.45;;
64498;SDS011;51087;55.718;21.122;2023-04-07T00:24:36;33.25;;;14.90;;
64498;SDS011;51087;55.718;21.122;2023-04-07T00:27:01;33.55;;;15.00;;
64498;SDS011;51087;55.718;21.122;2023-04-07T00:29:26;33.72;;;14.23;;
64498;SDS011;51087;55.718;21.122;2023-04-07T00:31:52;34.78;;;12.75;;
64498;SDS011;51087;55.718;21.122;2023-04-07T00:34:17;30.75;;;14.52;;
64498;SDS011;51087;55.718;21.122;2023-04-07T00:36:43;32.72;;;14.95;;
64498;SDS011;51087;55.718;21.122;2023-04-07T00:39:08;32.08;;;14.63;;
64498;SDS011;51087;55.718;21.122;2023-04-07T00:41:34;30.85;;;14.57;;
64498;SDS011;51087;55.718;21.122;2023-04-07T00:44:00;38.58;;;15.98;;
64498;SDS011;51087;55.718;21.122;2023-04-07T00:46:25;39.03;;;15.80;;
64498;SDS011;51087;55.718;21.122;2023-04-07T00:48:51;34.92;;;15.45;;
64498;SDS011;51087;55.718;21.122;2023-04-07T00:51:19;35.90;;;14.88;;
64498;SDS011;51087;55.718;21.122;2023-04-07T00:53:46;33.00;;;14.10;;
64498;SDS011;51087;55.718;21.122;2023-04-07T00:56:11;38.33;;;15.57;;
64498;SDS011;51087;55.718;21.122;2023-04-07T00:58:37;34.00;;;15.25;;
64498;SDS011;51087;55.718;21.122;2023-04-07T01:01:07;30.35;;;13.02;;
64498;SDS011;51087;55.718;21.122;2023-04-07T01:04:21;26.98;;;13.13;;
64498;SDS011;51087;55.718;21.122;2023-04-07T01:06:29;32.22;;;13.60;;
64498;SDS011;51087;55.718;21.122;2023-04-07T01:09:04;31.40;;;14.38;;
64498;SDS011;51087;55.718;21.122;2023-04-07T01:14:08;36.78;;;14.45;;
64498;SDS011;51087;55.718;21.122;2023-04-07T01:16:56;32.72;;;13.57;;
64498;SDS011;51087;55.718;21.122;2023-04-07T01:19:32;42.70;;;17.00;;
64498;SDS011;51087;55.718;21.122;2023-04-07T01:22:01;32.58;;;12.35;;
64498;SDS011;51087;55.718;21.122;2023-04-07T01:30:02;35.08;;;14.43;;
64498;SDS011;51087;55.718;21.122;2023-04-07T01:32:29;29.55;;;13.00;;
64498;SDS011;51087;55.718;21.122;2023-04-07T01:34:55;36.50;;;15.88;;
64498;SDS011;51087;55.718;21.122;2023-04-07T01:37:22;36.38;;;15.10;;
64498;SDS011;51087;55.718;21.122;2023-04-07T01:39:48;26.08;;;10.38;;
64498;SDS011;51087;55.718;21.122;2023-04-07T01:42:14;39.15;;;16.42;;
64498;SDS011;51087;55.718;21.122;2023-04-07T01:44:41;30.00;;;12.95;;
64498;SDS011;51087;55.718;21.122;2023-04-07T01:47:07;34.60;;;15.48;;
64498;SDS011;51087;55.718;21.122;2023-04-07T01:49:33;31.40;;;15.32;;
64498;SDS011;51087;55.718;21.122;2023-04-07T01:52:00;36.60;;;15.23;;
64498;SDS011;51087;55.718;21.122;2023-04-07T01:54:27;29.70;;;13.55;;
64498;SDS011;51087;55.718;21.122;2023-04-07T01:56:52;33.22;;;13.27;;
64498;SDS011;51087;55.718;21.122;2023-04-07T01:59:18;26.45;;;10.18;;
64498;SDS011;51087;55.718;21.122;2023-04-07T02:01:43;37.40;;;15.93;;
64498;SDS011;51087;55.718;21.122;2023-04-07T02:06:55;31.08;;;13.70;;
64498;SDS011;51087;55.718;21.122;2023-04-07T02:09:29;35.67;;;14.02;;
64498;SDS011;51087;55.718;21.122;2023-04-07T02:11:56;40.20;;;16.33;;
64498;SDS011;51087;55.718;21.122;2023-04-07T02:14:24;34.13;;;14.48;;
64498;SDS011;51087;55.718;21.122;2023-04-07T02:16:52;30.08;;;13.43;;
64498;SDS011;51087;55.718;21.122;2023-04-07T02:19:18;38.63;;;16.08;;
64498;SDS011;51087;55.718;21.122;2023-04-07T02:21:45;36.88;;;14.65;;
64498;SDS011;51087;55.718;21.122;2023-04-07T02:24:12;40.30;;;15.45;;
64498;SDS011;51087;55.718;21.122;2023-04-07T02:26:37;41.25;;;15.75;;
64498;SDS011;51087;55.718;21.122;2023-04-07T02:29:03;40.83;;;17.45;;
64498;SDS011;51087;55.718;21.122;2023-04-07T02:31:29;40.20;;;17.75;;
64498;SDS011;51087;55.718;21.122;2023-04-07T02:33:54;41.03;;;16.90;;
64498;SDS011;51087;55.718;21.122;2023-04-07T02:36:20;50.33;;;16.83;;
64498;SDS011;51087;55.718;21.122;2023-04-07T02:38:45;46.28;;;17.27;;
64498;SDS011;51087;55.718;21.122;2023-04-07T02:41:11;32.75;;;14.35;;
64498;SDS011;51087;55.718;21.122;2023-04-07T02:43:36;44.45;;;16.88;;
64498;SDS011;51087;55.718;21.122;2023-04-07T02:46:02;32.20;;;12.77;;
64498;SDS011;51087;55.718;21.122;2023-04-07T02:48:27;29.13;;;11.48;;
64498;SDS011;51087;55.718;21.122;2023-04-07T02:50:52;33.03;;;14.63;;
64498;SDS011;51087;55.718;21.122;2023-04-07T02:53:18;41.17;;;14.27;;
64498;SDS011;51087;55.718;21.122;2023-04-07T02:55:44;40.83;;;15.82;;
64498;SDS011;51087;55.718;21.122;2023-04-07T02:58:10;39.08;;;17.25;;
64498;SDS011;51087;55.718;21.122;2023-04-07T03:00:35;40.28;;;14.82;;
64498;SDS011;51087;55.718;21.122;2023-04-07T03:03:01;38.88;;;13.18;;
64498;SDS011;51087;55.718;21.122;2023-04-07T03:05:26;32.17;;;12.75;;
64498;SDS011;51087;55.718;21.122;2023-04-07T03:07:52;27.23;;;12.68;;
64498;SDS011;51087;55.718;21.122;2023-04-07T03:10:17;33.15;;;13.00;;
64498;SDS011;51087;55.718;21.122;2023-04-07T03:12:42;35.40;;;14.00;;
64498;SDS011;51087;55.718;21.122;2023-04-07T03:15:08;30.90;;;12.57;;
64498;SDS011;51087;55.718;21.122;2023-04-07T03:17:34;33.67;;;13.48;;
64498;SDS011;51087;55.718;21.122;2023-04-07T03:20:00;33.83;;;13.75;;
64498;SDS011;51087;55.718;21.122;2023-04-07T03:22:25;32.92;;;13.68;;
64498;SDS011;51087;55.718;21.122;2023-04-07T03:24:50;25.02;;;11.68;;
64498;SDS011;51087;55.718;21.122;2023-04-07T03:27:16;28.35;;;12.00;;
64498;SDS011;51087;55.718;21.122;2023-04-07T03:29:42;34.38;;;14.57;;
64498;SDS011;51087;55.718;21.122;2023-04-07T03:32:07;39.58;;;14.43;;
64498;SDS011;51087;55.718;21.122;2023-04-07T03:34:33;44.28;;;16.30;;
64498;SDS011;51087;55.718;21.122;2023-04-07T03:36:58;44.80;;;18.60;;
64498;SDS011;51087;55.718;21.122;2023-04-07T03:39:24;35.28;;;14.10;;
64498;SDS011;51087;55.718;21.122;2023-04-07T03:41:49;41.15;;;15.77;;
64498;SDS011;51087;55.718;21.122;2023-04-07T03:44:15;42.97;;;17.77;;
64498;SDS011;51087;55.718;21.122;2023-04-07T03:46:41;45.10;;;18.77;;
64498;SDS011;51087;55.718;21.122;2023-04-07T03:49:06;46.65;;;17.38;;
64498;SDS011;51087;55.718;21.122;2023-04-07T03:51:32;19.63;;;8.45;;
64498;SDS011;51087;55.718;21.122;2023-04-07T03:53:58;43.53;;;19.15;;
64498;SDS011;51087;55.718;21.122;2023-04-07T03:56:23;32.45;;;13.32;;
64498;SDS011;51087;55.718;21.122;2023-04-07T03:58:49;44.30;;;18.80;;
64498;SDS011;51087;55.718;21.122;2023-04-07T04:01:14;34.95;;;13.15;;
64498;SDS011;51087;55.718;21.122;2023-04-07T04:03:40;43.63;;;15.60;;
64498;SDS011;51087;55.718;21.122;2023-04-07T04:06:06;38.45;;;16.75;;
64498;SDS011;51087;55.718;21.122;2023-04-07T04:08:31;27.35;;;12.07;;
64498;SDS011;51087;55.718;21.122;2023-04-07T04:10:57;46.35;;;17.77;;
64498;SDS011;51087;55.718;21.122;2023-04-07T04:13:22;39.22;;;16.58;;
64498;SDS011;51087;55.718;21.122;2023-04-07T04:15:47;38.95;;;14.23;;
64498;SDS011;51087;55.718;21.122;2023-04-07T04:18:13;15.00;;;7.90;;
64498;SDS011;51087;55.718;21.122;2023-04-07T04:20:38;34.50;;;15.43;;
64498;SDS011;51087;55.718;21.122;2023-04-07T04:23:04;26.50;;;11.75;;
64498;SDS011;51087;55.718;21.122;2023-04-07T04:25:29;33.10;;;14.93;;
64498;SDS011;51087;55.718;21.122;2023-04-07T04:27:55;33.70;;;16.15;;
64498;SDS011;51087;55.718;21.122;2023-04-07T04:30:20;34.63;;;14.05;;
64498;SDS011;51087;55.718;21.122;2023-04-07T04:32:46;35.13;;;16.13;;
64498;SDS011;51087;55.718;21.122;2023-04-07T04:35:11;28.15;;;12.10;;
64498;SDS011;51087;55.718;21.122;2023-04-07T04:37:37;35.88;;;16.40;;
64498;SDS011;51087;55.718;21.122;2023-04-07T04:40:02;24.15;;;11.45;;
64498;SDS011;51087;55.718;21.122;2023-04-07T04:42:28;42.30;;;17.98;;
64498;SDS011;51087;55.718;21.122;2023-04-07T04:44:55;33.25;;;16.48;;
64498;SDS011;51087;55.718;21.122;2023-04-07T04:47:21;38.70;;;17.38;;
64498;SDS011;51087;55.718;21.122;2023-04-07T04:49:46;28.23;;;11.55;;
64498;SDS011;51087;55.718;21.122;2023-04-07T04:52:11;39.85;;;16.33;;
64498;SDS011;51087;55.718;21.122;2023-04-07T04:54:37;37.63;;;16.83;;
64498;SDS011;51087;55.718;21.122;2023-04-07T04:57:02;33.97;;;14.50;;
64498;SDS011;51087;55.718;21.122;2023-04-07T04:59:28;35.45;;;16.20;;
64498;SDS011;51087;55.718;21.122;2023-04-07T05:01:53;34.30;;;16.25;;
64498;SDS011;51087;55.718;21.122;2023-04-07T05:04:18;29.33;;;13.70;;
64498;SDS011;51087;55.718;21.122;2023-04-07T05:06:44;32.00;;;13.60;;
64498;SDS011;51087;55.718;21.122;2023-04-07T05:09:09;37.20;;;17.83;;
64498;SDS011;51087;55.718;21.122;2023-04-07T05:11:35;34.83;;;15.70;;
64498;SDS011;51087;55.718;21.122;2023-04-07T05:14:00;34.05;;;15.73;;
64498;SDS011;51087;55.718;21.122;2023-04-07T05:16:26;34.13;;;16.23;;
64498;SDS011;51087;55.718;21.122;2023-04-07T05:18:51;35.28;;;16.15;;
64498;SDS011;51087;55.718;21.122;2023-04-07T05:21:17;37.60;;;15.23;;
64498;SDS011;51087;55.718;21.122;2023-04-07T05:23:44;31.30;;;15.20;;
64498;SDS011;51087;55.718;21.122;2023-04-07T05:26:10;39.45;;;16.58;;
64498;SDS011;51087;55.718;21.122;2023-04-07T05:28:35;41.90;;;18.45;;
64498;SDS011;51087;55.718;21.122;2023-04-07T05:31:01;40.60;;;17.85;;
64498;SDS011;51087;55.718;21.122;2023-04-07T05:33:26;32.28;;;14.40;;
64498;SDS011;51087;55.718;21.122;2023-04-07T05:35:51;31.17;;;14.98;;
64498;SDS011;51087;55.718;21.122;2023-04-07T05:38:17;38.63;;;16.40;;
64498;SDS011;51087;55.718;21.122;2023-04-07T05:40:42;34.38;;;15.98;;
64498;SDS011;51087;55.718;21.122;2023-04-07T05:43:08;27.58;;;14.52;;
64498;SDS011;51087;55.718;21.122;2023-04-07T05:45:33;31.98;;;13.60;;
64498;SDS011;51087;55.718;21.122;2023-04-07T05:47:58;26.60;;;13.38;;
64498;SDS011;51087;55.718;21.122;2023-04-07T05:50:27;30.13;;;13.57;;
64498;SDS011;51087;55.718;21.122;2023-04-07T05:52:52;32.45;;;14.98;;
64498;SDS011;51087;55.718;21.122;2023-04-07T05:55:17;27.70;;;13.20;;
64498;SDS011;51087;55.718;21.122;2023-04-07T05:57:43;29.67;;;13.63;;
64498;SDS011;51087;55.718;21.122;2023-04-07T06:00:08;26.02;;;13.80;;
64498;SDS011;51087;55.718;21.122;2023-04-07T06:02:34;26.02;;;13.15;;
64498;SDS011;51087;55.718;21.122;2023-04-07T06:05:00;28.75;;;14.10;;
64498;SDS011;51087;55.718;21.122;2023-04-07T06:07:25;25.17;;;13.07;;
64498;SDS011;51087;55.718;21.122;2023-04-07T06:09:51;29.60;;;12.77;;
64498;SDS011;51087;55.718;21.122;2023-04-07T06:12:16;25.25;;;12.50;;
64498;SDS011;51087;55.718;21.122;2023-04-07T06:14:42;26.52;;;12.23;;
64498;SDS011;51087;55.718;21.122;2023-04-07T06:17:07;24.30;;;12.07;;
64498;SDS011;51087;55.718;21.122;2023-04-07T06:19:32;26.27;;;11.63;;
64498;SDS011;51087;55.718;21.122;2023-04-07T06:21:58;25.30;;;11.75;;
64498;SDS011;51087;55.718;21.122;2023-04-07T06:24:23;21.98;;;10.90;;
64498;SDS011;51087;55.718;21.122;2023-04-07T06:26:49;14.40;;;8.43;;
64498;SDS011;51087;55.718;21.122;2023-04-07T06:29:16;20.60;;;10.15;;
64498;SDS011;51087;55.718;21.122;2023-04-07T06:31:42;17.88;;;10.13;;
64498;SDS011;51087;55.718;21.122;2023-04-07T06:34:07;22.63;;;8.65;;
64498;SDS011;51087;55.718;21.122;2023-04-07T06:36:33;18.77;;;8.93;;
64498;SDS011;51087;55.718;21.122;2023-04-07T06:38:58;14.45;;;8.60;;
64498;SDS011;51087;55.718;21.122;2023-04-07T06:41:24;15.43;;;8.98;;
64498;SDS011;51087;55.718;21.122;2023-04-07T06:43:50;14.75;;;7.68;;
64498;SDS011;51087;55.718;21.122;2023-04-07T06:46:15;14.40;;;6.88;;
64498;SDS011;51087;55.718;21.122;2023-04-07T06:48:41;14.68;;;8.02;;
64498;SDS011;51087;55.718;21.122;2023-04-07T06:51:07;14.43;;;7.20;;
64498;SDS011;51087;55.718;21.122;2023-04-07T06:53:32;16.38;;;7.47;;
64498;SDS011;51087;55.718;21.122;2023-04-07T06:56:05;13.88;;;7.65;;
64498;SDS011;51087;55.718;21.122;2023-04-07T07:00:58;13.32;;;5.93;;
64498;SDS011;51087;55.718;21.122;2023-04-07T07:03:27;16.10;;;6.18;;
64498;SDS011;51087;55.718;21.122;2023-04-07T07:05:53;15.43;;;6.88;;
64498;SDS011;51087;55.718;21.122;2023-04-07T07:08:21;20.35;;;7.07;;
64498;SDS011;51087;55.718;21.122;2023-04-07T07:10:46;16.48;;;6.78;;
64498;SDS011;51087;55.718;21.122;2023-04-07T07:13:12;16.65;;;6.45;;
64498;SDS011;51087;55.718;21.122;2023-04-07T07:15:37;10.18;;;5.03;;
64498;SDS011;51087;55.718;21.122;2023-04-07T07:18:02;15.82;;;6.60;;
64498;SDS011;51087;55.718;21.122;2023-04-07T07:20:28;12.18;;;6.22;;
64498;SDS011;51087;55.718;21.122;2023-04-07T07:22:53;17.05;;;6.50;;
64498;SDS011;51087;55.718;21.122;2023-04-07T07:25:19;11.38;;;5.95;;
64498;SDS011;51087;55.718;21.122;2023-04-07T07:27:45;14.43;;;6.10;;
64498;SDS011;51087;55.718;21.122;2023-04-07T07:30:10;13.98;;;6.28;;
64498;SDS011;51087;55.718;21.122;2023-04-07T07:32:36;12.02;;;6.78;;
64498;SDS011;51087;55.718;21.122;2023-04-07T07:35:01;8.68;;;4.88;;
64498;SDS011;51087;55.718;21.122;2023-04-07T07:37:26;22.27;;;5.00;;
64498;SDS011;51087;55.718;21.122;2023-04-07T07:39:52;11.43;;;6.22;;
64498;SDS011;51087;55.718;21.122;2023-04-07T07:42:17;11.60;;;6.15;;
64498;SDS011;51087;55.718;21.122;2023-04-07T07:44:43;11.85;;;5.88;;
64498;SDS011;51087;55.718;21.122;2023-04-07T07:47:08;13.52;;;6.03;;
64498;SDS011;51087;55.718;21.122;2023-04-07T07:49:34;14.93;;;5.55;;
64498;SDS011;51087;55.718;21.122;2023-04-07T07:52:00;20.23;;;6.13;;
64498;SDS011;51087;55.718;21.122;2023-04-07T07:54:26;14.85;;;5.85;;
64498;SDS011;51087;55.718;21.122;2023-04-07T07:56:51;19.30;;;6.35;;
64498;SDS011;51087;55.718;21.122;2023-04-07T07:59:17;14.68;;;5.65;;
64498;SDS011;51087;55.718;21.122;2023-04-07T08:01:42;17.98;;;5.80;;
64498;SDS011;51087;55.718;21.122;2023-04-07T08:04:08;13.60;;;5.75;;
64498;SDS011;51087;55.718;21.122;2023-04-07T08:06:34;12.80;;;4.43;;
64498;SDS011;51087;55.718;21.122;2023-04-07T08:09:01;15.30;;;5.65;;
64498;SDS011;51087;55.718;21.122;2023-04-07T08:11:27;10.30;;;5.88;;
64498;SDS011;51087;55.718;21.122;2023-04-07T08:13:52;11.10;;;5.68;;
64498;SDS011;51087;55.718;21.122;2023-04-07T08:16:18;14.80;;;6.43;;
64498;SDS011;51087;55.718;21.122;2023-04-07T08:18:44;12.90;;;6.20;;
64498;SDS011;51087;55.718;21.122;2023-04-07T08:21:10;16.70;;;6.88;;
64498;SDS011;51087;55.718;21.122;2023-04-07T08:23:36;11.95;;;5.43;;
64498;SDS011;51087;55.718;21.122;2023-04-07T08:26:02;17.27;;;6.20;;
64498;SDS011;51087;55.718;21.122;2023-04-07T08:28:27;9.93;;;5.18;;
64498;SDS011;51087;55.718;21.122;2023-04-07T08:30:53;12.32;;;5.50;;
64498;SDS011;51087;55.718;21.122;2023-04-07T08:33:18;13.70;;;4.90;;
64498;SDS011;51087;55.718;21.122;2023-04-07T08:35:47;15.10;;;4.80;;
64498;SDS011;51087;55.718;21.122;2023-04-07T08:38:12;18.40;;;5.38;;
64498;SDS011;51087;55.718;21.122;2023-04-07T08:40:38;11.52;;;5.38;;
64498;SDS011;51087;55.718;21.122;2023-04-07T08:43:07;12.48;;;5.15;;
64498;SDS011;51087;55.718;21.122;2023-04-07T08:45:35;12.90;;;4.65;;
64498;SDS011;51087;55.718;21.122;2023-04-07T08:48:07;18.73;;;5.45;;
64498;SDS011;51087;55.718;21.122;2023-04-07T08:50:39;22.95;;;5.57;;
64498;SDS011;51087;55.718;21.122;2023-04-07T08:53:11;14.10;;;4.78;;
64498;SDS011;51087;55.718;21.122;2023-04-07T08:55:39;9.85;;;4.22;;
64498;SDS011;51087;55.718;21.122;2023-04-07T08:58:05;12.05;;;4.90;;
64498;SDS011;51087;55.718;21.122;2023-04-07T09:00:36;16.70;;;4.95;;
64498;SDS011;51087;55.718;21.122;2023-04-07T09:03:05;8.93;;;4.90;;
64498;SDS011;51087;55.718;21.122;2023-04-07T09:05:32;17.92;;;4.80;;
64498;SDS011;51087;55.718;21.122;2023-04-07T09:07:58;15.20;;;4.97;;
64498;SDS011;51087;55.718;21.122;2023-04-07T09:10:24;10.40;;;4.93;;
64498;SDS011;51087;55.718;21.122;2023-04-07T09:12:49;11.68;;;4.30;;
64498;SDS011;51087;55.718;21.122;2023-04-07T09:15:14;10.07;;;4.50;;
64498;SDS011;51087;55.718;21.122;2023-04-07T09:17:40;13.52;;;4.78;;
64498;SDS011;51087;55.718;21.122;2023-04-07T09:20:06;11.57;;;5.05;;
64498;SDS011;51087;55.718;21.122;2023-04-07T09:22:42;12.38;;;4.30;;
64498;SDS011;51087;55.718;21.122;2023-04-07T09:25:12;22.00;;;5.10;;
64498;SDS011;51087;55.718;21.122;2023-04-07T09:30:23;10.80;;;4.00;;
64498;SDS011;51087;55.718;21.122;2023-04-07T09:32:49;10.02;;;4.35;;
64498;SDS011;51087;55.718;21.122;2023-04-07T09:35:14;8.02;;;3.60;;
64498;SDS011;51087;55.718;21.122;2023-04-07T09:37:40;11.65;;;3.75;;
64498;SDS011;51087;55.718;21.122;2023-04-07T09:40:07;6.72;;;3.67;;
64498;SDS011;51087;55.718;21.122;2023-04-07T09:42:33;8.07;;;3.72;;
64498;SDS011;51087;55.718;21.122;2023-04-07T09:45:01;11.23;;;3.22;;
64498;SDS011;51087;55.718;21.122;2023-04-07T09:47:31;16.90;;;3.60;;
64498;SDS011;51087;55.718;21.122;2023-04-07T09:49:56;5.35;;;3.00;;
64498;SDS011;51087;55.718;21.122;2023-04-07T09:52:49;6.93;;;3.30;;
64498;SDS011;51087;55.718;21.122;2023-04-07T09:55:17;5.50;;;2.70;;
64498;SDS011;51087;55.718;21.122;2023-04-07T09:57:48;10.00;;;3.10;;
64498;SDS011;51087;55.718;21.122;2023-04-07T10:00:16;15.55;;;5.05;;
64498;SDS011;51087;55.718;21.122;2023-04-07T10:02:42;13.68;;;3.10;;
64498;SDS011;51087;55.718;21.122;2023-04-07T10:05:09;12.15;;;3.28;;
64498;SDS011;51087;55.718;21.122;2023-04-07T10:07:35;11.48;;;2.85;;
64498;SDS011;51087;55.718;21.122;2023-04-07T10:10:02;9.55;;;3.00;;
64498;SDS011;51087;55.718;21.122;2023-04-07T10:12:28;10.57;;;3.33;;
64498;SDS011;51087;55.718;21.122;2023-04-07T10:14:56;9.48;;;2.85;;
64498;SDS011;51087;55.718;21.122;2023-04-07T10:17:22;18.50;;;3.55;;
64498;SDS011;51087;55.718;21.122;2023-04-07T10:19:48;7.22;;;3.17;;
64498;SDS011;51087;55.718;21.122;2023-04-07T10:22:14;8.98;;;2.92;;
64498;SDS011;51087;55.718;21.122;2023-04-07T10:24:51;10.38;;;3.20;;
64498;SDS011;51087;55.718;21.122;2023-04-07T10:27:21;9.18;;;3.30;;
64498;SDS011;51087;55.718;21.122;2023-04-07T10:29:54;8.30;;;2.90;;
64498;SDS011;51087;55.718;21.122;2023-04-07T10:32:22;7.72;;;3.05;;
64498;SDS011;51087;55.718;21.122;2023-04-07T10:37:17;19.02;;;4.00;;
64498;SDS011;51087;55.718;21.122;2023-04-07T10:39:46;14.10;;;3.30;;
64498;SDS011;51087;55.718;21.122;2023-04-07T10:45:03;11.43;;;3.10;;
64498;SDS011;51087;55.718;21.122;2023-04-07T10:47:29;11.32;;;3.30;;
64498;SDS011;51087;55.718;21.122;2023-04-07T10:52:46;11.77;;;3.03;;
64498;SDS011;51087;55.718;21.122;2023-04-07T10:55:29;5.18;;;2.92;;
64498;SDS011;51087;55.718;21.122;2023-04-07T11:00:39;7.78;;;3.45;;
64498;SDS011;51087;55.718;21.122;2023-04-07T11:03:11;12.63;;;3.20;;
64498;SDS011;51087;55.718;21.122;2023-04-07T11:05:38;8.35;;;2.90;;
64498;SDS011;51087;55.718;21.122;2023-04-07T11:08:04;11.50;;;3.20;;
64498;SDS011;51087;55.718;21.122;2023-04-07T11:10:31;23.10;;;4.45;;
64498;SDS011;51087;55.718;21.122;2023-04-07T11:15:27;11.27;;;3.60;;
64498;SDS011;51087;55.718;21.122;2023-04-07T11:18:12;7.95;;;3.00;;
64498;SDS011;51087;55.718;21.122;2023-04-07T11:23:21;5.78;;;2.70;;
64498;SDS011;51087;55.718;21.122;2023-04-07T11:25:49;5.18;;;2.40;;
64498;SDS011;51087;55.718;21.122;2023-04-07T11:28:16;8.73;;;2.10;;
64498;SDS011;51087;55.718;21.122;2023-04-07T11:30:45;16.13;;;3.63;;
64498;SDS011;51087;55.718;21.122;2023-04-07T11:33:15;9.30;;;2.95;;
64498;SDS011;51087;55.718;21.122;2023-04-07T11:35:51;8.57;;;2.80;;
64498;SDS011;51087;55.718;21.122;2023-04-07T11:38:34;8.52;;;3.03;;
64498;SDS011;51087;55.718;21.122;2023-04-07T11:41:09;5.47;;;2.58;;
64498;SDS011;51087;55.718;21.122;2023-04-07T11:43:35;10.25;;;3.08;;
64498;SDS011;51087;55.718;21.122;2023-04-07T11:46:02;9.23;;;3.17;;
64498;SDS011;51087;55.718;21.122;2023-04-07T11:48:30;7.85;;;2.47;;
64498;SDS011;51087;55.718;21.122;2023-04-07T11:50:56;10.48;;;2.88;;
64498;SDS011;51087;55.718;21.122;2023-04-07T11:53:24;8.95;;;2.78;;
64498;SDS011;51087;55.718;21.122;2023-04-07T11:56:05;8.82;;;2.63;;
64498;SDS011;51087;55.718;21.122;2023-04-07T11:58:34;7.80;;;2.67;;
64498;SDS011;51087;55.718;21.122;2023-04-07T12:01:02;7.90;;;2.80;;
64498;SDS011;51087;55.718;21.122;2023-04-07T12:03:33;4.90;;;2.40;;
64498;SDS011;51087;55.718;21.122;2023-04-07T12:06:00;10.60;;;2.97;;
64498;SDS011;51087;55.718;21.122;2023-04-07T12:08:39;9.27;;;2.78;;
64498;SDS011;51087;55.718;21.122;2023-04-07T12:11:06;8.02;;;3.15;;
64498;SDS011;51087;55.718;21.122;2023-04-07T12:13:32;12.95;;;3.58;;
64498;SDS011;51087;55.718;21.122;2023-04-07T12:15:58;7.80;;;2.90;;
64498;SDS011;51087;55.718;21.122;2023-04-07T12:18:24;18.20;;;3.88;;
64498;SDS011;51087;55.718;21.122;2023-04-07T12:20:51;13.48;;;3.80;;
64498;SDS011;51087;55.718;21.122;2023-04-07T12:23:16;12.68;;;3.10;;
64498;SDS011;51087;55.718;21.122;2023-04-07T12:25:42;7.03;;;2.88;;
64498;SDS011;51087;55.718;21.122;2023-04-07T12:28:07;6.72;;;2.85;;
64498;SDS011;51087;55.718;21.122;2023-04-07T12:30:32;8.65;;;2.78;;
64498;SDS011;51087;55.718;21.122;2023-04-07T12:32:58;8.48;;;2.75;;
64498;SDS011;51087;55.718;21.122;2023-04-07T12:35:23;10.90;;;3.20;;
64498;SDS011;51087;55.718;21.122;2023-04-07T12:37:49;11.68;;;3.30;;
64498;SDS011;51087;55.718;21.122;2023-04-07T12:40:15;14.45;;;3.00;;
64498;SDS011;51087;55.718;21.122;2023-04-07T12:42:41;7.78;;;3.45;;
64498;SDS011;51087;55.718;21.122;2023-04-07T12:45:07;10.57;;;3.20;;
64498;SDS011;51087;55.718;21.122;2023-04-07T12:47:33;9.68;;;3.00;;
64498;SDS011;51087;55.718;21.122;2023-04-07T12:49:58;15.43;;;3.38;;
64498;SDS011;51087;55.718;21.122;2023-04-07T12:52:23;10.68;;;2.92;;
64498;SDS011;51087;55.718;21.122;2023-04-07T12:54:49;12.65;;;3.53;;
64498;SDS011;51087;55.718;21.122;2023-04-07T12:57:15;10.50;;;3.10;;
64498;SDS011;51087;55.718;21.122;2023-04-07T12:59:40;10.68;;;3.30;;
64498;SDS011;51087;55.718;21.122;2023-04-07T13:02:06;15.85;;;3.90;;
64498;SDS011;51087;55.718;21.122;2023-04-07T13:04:32;9.73;;;3.47;;
64498;SDS011;51087;55.718;21.122;2023-04-07T13:06:58;9.63;;;3.38;;
64498;SDS011;51087;55.718;21.122;2023-04-07T13:09:26;9.02;;;3.00;;
64498;SDS011;51087;55.718;21.122;2023-04-07T13:11:52;11.55;;;3.33;;
64498;SDS011;51087;55.718;21.122;2023-04-07T13:14:17;12.73;;;3.78;;
64498;SDS011;51087;55.718;21.122;2023-04-07T13:16:43;8.63;;;3.20;;
64498;SDS011;51087;55.718;21.122;2023-04-07T13:19:08;10.27;;;3.45;;
64498;SDS011;51087;55.718;21.122;2023-04-07T13:21:34;13.02;;;3.60;;
64498;SDS011;51087;55.718;21.122;2023-04-07T13:23:59;14.00;;;3.75;;
64498;SDS011;51087;55.718;21.122;2023-04-07T13:26:25;11.10;;;3.70;;
64498;SDS011;51087;55.718;21.122;2023-04-07T13:28:52;13.77;;;3.55;;
64498;SDS011;51087;55.718;21.122;2023-04-07T13:31:17;7.20;;;3.22;;
64498;SDS011;51087;55.718;21.122;2023-04-07T13:33:43;17.13;;;4.13;;
64498;SDS011;51087;55.718;21.122;2023-04-07T13:36:09;16.98;;;4.05;;
64498;SDS011;51087;55.718;21.122;2023-04-07T13:38:34;13.20;;;3.55;;
64498;SDS011;51087;55.718;21.122;2023-04-07T13:41:01;11.35;;;3.50;;
64498;SDS011;51087;55.718;21.122;2023-04-07T13:43:27;12.23;;;3.72;;
64498;SDS011;51087;55.718;21.122;2023-04-07T13:45:53;8.50;;;3.75;;
64498;SDS011;51087;55.718;21.122;2023-04-07T13:48:20;21.58;;;4.05;;
64498;SDS011;51087;55.718;21.122;2023-04-07T13:50:45;8.88;;;3.78;;
64498;SDS011;51087;55.718;21.122;2023-04-07T13:53:11;9.20;;;3.47;;
64498;SDS011;51087;55.718;21.122;2023-04-07T13:55:37;8.27;;;3.60;;
64498;SDS011;51087;55.718;21.122;2023-04-07T13:58:03;10.40;;;4.10;;
64498;SDS011;51087;55.718;21.122;2023-04-07T14:00:28;14.10;;;4.30;;
64498;SDS011;51087;55.718;21.122;2023-04-07T14:02:54;9.60;;;4.18;;
64498;SDS011;51087;55.718;21.122;2023-04-07T14:05:20;11.30;;;3.85;;
64498;SDS011;51087;55.718;21.122;2023-04-07T14:07:45;13.60;;;3.78;;
64498;SDS011;51087;55.718;21.122;2023-04-07T14:10:11;13.43;;;4.15;;
64498;SDS011;51087;55.718;21.122;2023-04-07T14:12:37;15.95;;;3.70;;
64498;SDS011;51087;55.718;21.122;2023-04-07T14:15:02;15.15;;;4.00;;
64498;SDS011;51087;55.718;21.122;2023-04-07T14:17:28;18.65;;;3.90;;
64498;SDS011;51087;55.718;21.122;2023-04-07T14:19:53;11.07;;;3.53;;
64498;SDS011;51087;55.718;21.122;2023-04-07T14:22:19;14.82;;;4.00;;
64498;SDS011;51087;55.718;21.122;2023-04-07T14:24:44;14.20;;;4.60;;
64498;SDS011;51087;55.718;21.122;2023-04-07T14:27:10;18.67;;;3.70;;
64498;SDS011;51087;55.718;21.122;2023-04-07T14:29:36;12.95;;;3.80;;
64498;SDS011;51087;55.718;21.122;2023-04-07T14:32:02;16.63;;;3.60;;
64498;SDS011;51087;55.718;21.122;2023-04-07T14:34:27;13.00;;;4.30;;
64498;SDS011;51087;55.718;21.122;2023-04-07T14:36:53;19.45;;;3.75;;
64498;SDS011;51087;55.718;21.122;2023-04-07T14:39:20;17.63;;;4.03;;
64498;SDS011;51087;55.718;21.122;2023-04-07T14:41:46;24.70;;;3.83;;
64498;SDS011;51087;55.718;21.122;2023-04-07T14:44:12;19.10;;;4.68;;
64498;SDS011;51087;55.718;21.122;2023-04-07T14:46:38;20.27;;;4.25;;